Laranjal do Jari, Brazil
Current Conditions -  °F | °C
As of 6:00 PM on Sunday 23 Nov 2014 (Local Time) from SBMQ Reporting Station
Few Clouds Few Clouds  
Wind Chill: 86°   Ceiling: Unl
Heat Index: 93°   Visibility: 6mi
Dew Point: 73°   Wind: 14mph
Humidity: 66%   Direction: 90°E
Pressure: 29.8"   Gusts: NA
Location:  1.12°S, 52°W
Report Text: SBMQ 232100Z 09012KT 9999 FEW020 30/23 Q1009
Loading
Personal Weather Stations






























Interactive Weather Map New forecast layout! Learn more

10-Day Weather Forecast

Advertisements
Track Severe Weather on mobile